createdAt,value
2022-08-21T00:00:42.385Z,17.56
2022-08-21T00:05:52.220Z,17.47
2022-08-21T00:10:53.805Z,17.46
2022-08-21T00:15:55.379Z,17.56
2022-08-21T00:20:57.088Z,17.47
2022-08-21T00:25:58.735Z,17.38
2022-08-21T00:31:01.089Z,17.54
2022-08-21T00:36:03.422Z,17.38
2022-08-21T00:41:36.806Z,17.44
2022-08-21T00:46:31.118Z,17.53
2022-08-21T00:51:51.577Z,17.44
2022-08-21T00:56:59.707Z,17.54
2022-08-21T01:02:02.882Z,17.38
2022-08-21T01:07:04.802Z,17.51
2022-08-21T01:12:06.716Z,17.39
2022-08-21T01:17:10.076Z,17.44
2022-08-21T01:22:11.898Z,17.33
2022-08-21T01:27:13.465Z,17.23
2022-08-21T01:32:18.648Z,17.28
2022-08-21T01:37:22.361Z,17.18
2022-08-21T01:42:24.160Z,17.19
2022-08-21T01:47:25.883Z,17.07
2022-08-21T01:52:27.556Z,17.07
2022-08-21T01:57:29.437Z,17.06
2022-08-21T02:02:30.954Z,17.07
2022-08-21T02:07:42.806Z,17.09
2022-08-21T02:12:44.386Z,17.07
2022-08-21T02:17:50.839Z,17.12
2022-08-21T02:22:52.644Z,16.99
2022-08-21T02:27:55.410Z,16.92
2022-08-21T02:32:59.285Z,16.90
2022-08-21T02:38:05.079Z,17.02
2022-08-21T02:43:08.128Z,17.00
2022-08-21T02:48:13.357Z,17.01
2022-08-21T02:53:17.527Z,17.08
2022-08-21T02:58:23.366Z,17.11
2022-08-21T03:03:26.290Z,17.02
2022-08-21T03:08:28.027Z,17.00
2022-08-21T03:13:29.901Z,17.00
2022-08-21T03:18:31.747Z,16.92
2022-08-21T03:23:33.403Z,16.84
2022-08-21T03:28:35.869Z,16.85
2022-08-21T03:33:37.535Z,16.89
2022-08-21T03:38:39.907Z,16.95
2022-08-21T03:43:41.606Z,16.88
2022-08-21T03:48:43.514Z,16.98
2022-08-21T03:53:45.951Z,16.95
2022-08-21T03:58:47.748Z,16.93
2022-08-21T04:03:49.315Z,16.93
2022-08-21T04:08:50.891Z,16.87
2022-08-21T04:13:52.423Z,16.93
2022-08-21T04:18:54.067Z,16.94
2022-08-21T04:23:56.652Z,17.09
2022-08-21T04:28:58.921Z,17.14
2022-08-21T04:34:00.426Z,17.12
2022-08-21T04:39:03.579Z,17.16
2022-08-21T04:44:05.483Z,17.18
2022-08-21T04:49:07.018Z,17.19
2022-08-21T04:54:23.827Z,17.20
2022-08-21T04:59:31.496Z,17.20
2022-08-21T05:04:35.380Z,17.23
2022-08-21T05:09:39.426Z,17.23
2022-08-21T05:14:40.966Z,17.28
2022-08-21T05:19:42.504Z,17.34
2022-08-21T05:24:44.035Z,17.31
2022-08-21T05:29:45.528Z,17.36
2022-08-21T05:34:47.648Z,17.52
2022-08-21T05:40:20.304Z,17.69
2022-08-21T05:45:10.829Z,17.82
2022-08-21T05:50:12.413Z,17.89
2022-08-21T05:55:14.249Z,17.93
2022-08-21T06:00:17.554Z,17.94
2022-08-21T06:05:33.405Z,18.00
2022-08-21T06:10:39.465Z,18.03
2022-08-21T06:15:41.292Z,17.98
2022-08-21T06:20:43.512Z,17.91
2022-08-21T06:25:45.020Z,17.93
2022-08-21T06:30:46.531Z,17.97
2022-08-21T06:35:48.120Z,18.12
2022-08-21T06:40:49.636Z,18.27
2022-08-21T06:45:51.339Z,18.46
2022-08-21T06:50:52.980Z,18.63
2022-08-21T06:55:54.572Z,18.86
2022-08-21T07:01:00.609Z,19.45
2022-08-21T07:06:03.391Z,20.25
2022-08-21T07:11:11.426Z,20.05
2022-08-21T07:16:13.037Z,19.87
2022-08-21T07:21:17.773Z,19.75
2022-08-21T07:26:22.321Z,19.73
2022-08-21T07:31:25.551Z,19.80
2022-08-21T07:36:27.125Z,19.92
2022-08-21T07:41:30.260Z,20.13
2022-08-21T07:46:31.794Z,20.23
2022-08-21T07:51:34.553Z,20.39
2022-08-21T07:56:36.039Z,20.54
2022-08-21T08:01:37.572Z,20.72
2022-08-21T08:06:39.124Z,20.71
2022-08-21T08:11:44.643Z,20.83
2022-08-21T08:16:46.237Z,21.00
2022-08-21T08:21:47.780Z,21.26
2022-08-21T08:26:53.590Z,21.32
2022-08-21T08:31:55.945Z,21.33
2022-08-21T08:36:59.582Z,21.35
2022-08-21T08:42:33.011Z,21.24
2022-08-21T08:47:32.096Z,21.39
2022-08-21T08:52:44.071Z,21.56
2022-08-21T08:57:49.363Z,21.63
2022-08-21T09:02:59.602Z,21.79
2022-08-21T09:08:40.531Z,21.83
2022-08-21T09:14:17.863Z,21.80
2022-08-21T09:19:40.510Z,22.00
2022-08-21T09:25:01.889Z,22.25
2022-08-21T09:30:06.379Z,22.53
2022-08-21T09:35:08.569Z,22.68
2022-08-21T09:40:31.633Z,22.65
2022-08-21T09:45:35.334Z,22.82
2022-08-21T09:50:37.116Z,23.02
2022-08-21T09:56:06.076Z,23.28
2022-08-21T10:01:17.736Z,23.38
2022-08-21T10:06:28.076Z,23.50
2022-08-21T10:11:30.586Z,23.62
2022-08-21T10:16:54.343Z,23.68
2022-08-21T10:22:20.444Z,23.87
2022-08-21T10:27:28.782Z,24.17
2022-08-21T10:32:43.300Z,24.65
2022-08-21T10:38:09.593Z,24.79
2022-08-21T10:43:32.040Z,24.60
2022-08-21T10:48:36.135Z,24.28
2022-08-21T10:54:06.228Z,24.13
2022-08-21T10:59:19.591Z,24.18
2022-08-21T11:04:39.788Z,24.23
2022-08-21T11:09:55.117Z,24.27
2022-08-21T11:15:29.708Z,24.53
2022-08-21T11:20:39.739Z,24.80
2022-08-21T11:25:47.562Z,24.85
2022-08-21T11:31:10.428Z,24.94
2022-08-21T11:36:35.078Z,24.76
2022-08-21T11:42:27.661Z,24.77
2022-08-21T11:47:41.458Z,24.76
2022-08-21T11:52:52.989Z,24.50
2022-08-21T11:58:05.414Z,24.27
2022-08-21T12:03:12.396Z,24.20
2022-08-21T12:08:27.421Z,24.55
2022-08-21T12:13:40.461Z,24.34
2022-08-21T12:18:44.613Z,24.22
2022-08-21T12:23:50.650Z,24.02
2022-08-21T12:29:03.344Z,24.05
2022-08-21T12:34:11.431Z,23.92
2022-08-21T12:39:18.876Z,24.19
2022-08-21T12:44:35.635Z,24.18
2022-08-21T12:50:03.459Z,24.31
2022-08-21T12:55:05.566Z,24.25
2022-08-21T13:00:15.263Z,24.28
2022-08-21T13:05:27.992Z,24.21
2022-08-21T13:10:32.713Z,24.07
2022-08-21T13:15:37.105Z,24.02
2022-08-21T13:20:42.166Z,23.96
2022-08-21T13:25:43.739Z,23.96
2022-08-21T13:30:48.967Z,23.83
2022-08-21T13:35:52.957Z,23.62
2022-08-21T13:41:00.482Z,23.54
2022-08-21T13:46:03.323Z,23.58
2022-08-21T13:51:05.465Z,23.60
2022-08-21T13:56:07.377Z,23.56
2022-08-21T14:01:28.640Z,23.57
2022-08-21T14:06:35.625Z,23.65
2022-08-21T14:11:39.498Z,23.49
2022-08-21T14:16:47.536Z,23.48
2022-08-21T14:21:49.412Z,23.56
2022-08-21T14:26:54.874Z,23.64
2022-08-21T14:31:59.307Z,23.56
2022-08-21T14:37:01.191Z,23.76
2022-08-21T14:42:03.260Z,23.77
2022-08-21T14:47:05.007Z,23.63
2022-08-21T14:52:06.674Z,23.54
2022-08-21T14:57:10.548Z,23.64
2022-08-21T15:02:12.312Z,23.51
2022-08-21T15:07:13.908Z,23.50
2022-08-21T15:12:16.106Z,23.41
2022-08-21T15:17:18.200Z,23.24
2022-08-21T15:22:28.052Z,23.02
2022-08-21T15:27:30.565Z,22.90
2022-08-21T15:32:32.933Z,22.96
2022-08-21T15:37:34.710Z,22.99
2022-08-21T15:42:38.614Z,22.79
2022-08-21T15:47:44.878Z,22.82
2022-08-21T15:52:46.603Z,22.72
2022-08-21T15:57:57.284Z,22.50
2022-08-21T16:03:01.053Z,22.56
2022-08-21T16:08:02.918Z,22.48
2022-08-21T16:13:12.100Z,22.36
2022-08-21T16:18:14.081Z,22.36
2022-08-21T16:23:15.704Z,22.37
2022-08-21T16:28:20.910Z,22.16
2022-08-21T16:33:33.971Z,22.18
2022-08-21T16:38:38.196Z,22.07
2022-08-21T16:43:42.767Z,22.05
2022-08-21T16:48:45.277Z,21.85
2022-08-21T16:53:46.902Z,21.81
2022-08-21T16:58:50.952Z,21.60
2022-08-21T17:03:53.385Z,21.66
2022-08-21T17:08:54.909Z,21.54
2022-08-21T17:13:58.454Z,21.42
2022-08-21T17:19:00.198Z,21.31
2022-08-21T17:24:01.790Z,21.22
2022-08-21T17:29:09.691Z,21.12
2022-08-21T17:34:12.490Z,21.01
2022-08-21T17:39:22.536Z,20.94
2022-08-21T17:44:28.337Z,20.88
2022-08-21T17:49:29.842Z,20.83
2022-08-21T17:54:31.391Z,20.80
2022-08-21T17:59:33.792Z,20.72
2022-08-21T18:04:36.304Z,20.69
2022-08-21T18:09:38.263Z,20.56
2022-08-21T18:14:40.895Z,20.43
2022-08-21T18:19:48.863Z,20.33
2022-08-21T18:24:51.686Z,20.22
2022-08-21T18:29:56.842Z,20.09
2022-08-21T18:35:03.062Z,20.01
2022-08-21T18:40:08.501Z,19.94
2022-08-21T18:45:13.573Z,19.84
2022-08-21T18:50:24.979Z,19.71
2022-08-21T18:55:28.324Z,19.60
2022-08-21T19:00:34.143Z,19.55
2022-08-21T19:05:36.481Z,19.51
2022-08-21T19:10:42.767Z,19.47
2022-08-21T19:15:52.671Z,19.41
2022-08-21T19:20:54.126Z,19.32
2022-08-21T19:26:00.823Z,19.25
2022-08-21T19:31:25.928Z,19.16
2022-08-21T19:36:27.566Z,19.00
2022-08-21T19:41:32.878Z,18.99
2022-08-21T19:46:37.874Z,18.95
2022-08-21T19:51:40.247Z,18.89
2022-08-21T19:56:42.477Z,18.96
2022-08-21T20:01:44.375Z,18.90
2022-08-21T20:06:47.092Z,18.83
2022-08-21T20:11:55.405Z,18.69
2022-08-21T20:17:02.444Z,18.63
2022-08-21T20:22:05.673Z,18.53
2022-08-21T20:27:08.226Z,18.63
2022-08-21T20:32:12.022Z,18.50
2022-08-21T20:42:54.641Z,18.23
2022-08-21T20:48:04.875Z,18.39
2022-08-21T20:53:20.545Z,18.30
2022-08-21T20:58:37.379Z,18.48
2022-08-21T21:03:46.800Z,18.44
2022-08-21T21:09:06.474Z,18.29
2022-08-21T21:14:14.510Z,18.18
2022-08-21T21:19:37.187Z,17.98
2022-08-21T21:25:11.383Z,18.19
2022-08-21T21:30:20.923Z,18.09
2022-08-21T21:35:32.559Z,17.88
2022-08-21T21:41:16.310Z,17.79
2022-08-21T21:46:33.087Z,17.70
2022-08-21T21:51:46.699Z,17.83
2022-08-21T21:57:09.146Z,17.72
2022-08-21T22:02:54.993Z,17.84
2022-08-21T22:08:02.850Z,17.80
2022-08-21T22:13:26.295Z,17.67
2022-08-21T22:18:37.448Z,17.72
2022-08-21T22:23:50.852Z,17.67
2022-08-21T22:28:53.466Z,17.62
2022-08-21T22:34:18.415Z,17.63
2022-08-21T22:39:38.986Z,17.67
2022-08-21T22:44:56.298Z,17.53
2022-08-21T22:50:04.330Z,17.39
2022-08-21T22:55:43.762Z,17.30
2022-08-21T23:00:54.565Z,17.41
2022-08-21T23:05:56.128Z,17.22
2022-08-21T23:11:12.621Z,17.16
2022-08-21T23:16:33.055Z,17.29
2022-08-21T23:21:52.785Z,17.24
2022-08-21T23:27:09.528Z,17.06
2022-08-21T23:32:10.945Z,17.12
2022-08-21T23:43:02.107Z,16.99
2022-08-21T23:48:37.475Z,16.96
2022-08-21T23:53:53.004Z,16.98
2022-08-21T23:59:13.080Z,16.89
